Garfield, Vermont
Current Conditions -  °F | °C
As of 8:59 PM on Wednesday 26 Nov 2014 (Local Time) from KMPV Reporting Station
Light Snow Light Snow  
Wind Chill: 18°   Ceiling: 1000
Heat Index: 27°   Visibility: 0.75mi
Dew Point: 26°   Wind: 9mph
Humidity: 96%   Direction: 350°N
Pressure: 29.96"   Gusts: NA
Location:  44.5482°N, 72.6315°W
Report Text: KMPV 270159Z AUTO 35008KT 3/4SM -SN BR SCT005 OVC010 M03/M03 A2996 RMK AO2 P0001 T10281033
Loading
Personal Weather Stations






























Interactive Weather Map New forecast layout! Learn more

10-Day Weather Forecast

Advertisements
Track Severe Weather on mobile